Terminal Aerodrome Forecast
Issued by NWS

Home | Current Version | Previous Version | Graphics & Text | Print | Product List | Glossary On
Versions: 1 2 3 4 5 6 7 8 9 10 11 12 13 14
000
FTUS43 KGRB 161129
TAFMTW
TAF
KMTW 161129Z 1612/1712 21003KT P6SM BKN150
      TEMPO 1612/1615 5SM BR
     FM161900 13003KT 6SM -FZRASNPL SCT035 OVC060
     FM162200 12005KT 3SM -FZRAPL BR OVC021
     FM162300 12005KT 3SM -RA BR OVC014
     FM170000 12006KT 2SM -RA BR OVC008
     FM170200 08008G15KT 1 1/2SM -RA BR OVC005=

USA.gov is the U.S. government's official web portal to all federal, state and local government web resources and services.